If you wish to contribute or participate in the discussions about articles you are invited to join SKYbrary as a registered user

 Actions

Kadena Air Base

From SKYbrary Wiki

RODN
Airport
ICAO: RODN – IATA: DNA
Summary
Name Kadena Air Base
Region Asia and Pacific
Territory Japan JP.gif
Location Kadena, Okinawa
Serving Kadena
Elevation 44.501 m <br />146 ft <br />146 ft44.501 m <br />
Type large airport
Coordinates 26° 21' 20.20" N, 127° 46' 3.48" E
Runways
Designator Length Width Surface ROPS
05L/23R 3688 m12,099.738 ft <br /> 91 m298.556 ft <br /> ASP yes/yes
05R/23L 3688 m12,099.738 ft <br /> 61 m200.131 ft <br /> CON yes/yes


METAR
Observation RODN 192126Z AUTO 25006KT 10SM FEW021 BKN028 BKN034 OVC048 27/26 A2956 RMK AO2 CIG 028V048 SLP015 $
Station Kadena Ab
Date/Time 19 June 2021 21:26:00
Wind direction 250°
Wind speed 06 kts
Lowest cloud amount few clouds
Temperature 27°C
Dew point 26°C
Humidity 94%
QNH hPa
Weather condition n/a